Time;durP1;ratioP1;P1;durP2;ratioP2;P2;SDS_P1;SDS_P2;PMS_P1;PMS_P2;Temp;Humidity;BMP_temperature;BMP_pressure;BME280_temperature;BME280_humidity;BME280_pressure;Samples;Min_cycle;Max_cycle;Signal;HPM_P1;HPM_P2
2022/07/28 00:01:48;;;;;;;1999.90;999.90;;;;;;;21.60;50.93;95347.16;5010373;28;20457;-68
2022/07/28 00:04:13;;;;;;;1999.90;999.90;;;;;;;21.41;51.64;95329.97;5010784;28;20029;-68
2022/07/28 00:06:38;;;;;;;1999.90;999.90;;;;;;;21.43;50.85;95329.59;5028940;28;20752;-69
2022/07/28 00:09:04;;;;;;;1999.90;999.90;;;;;;;21.34;51.57;95329.09;5029548;28;20037;-68
2022/07/28 00:11:29;;;;;;;1999.90;999.90;;;;;;;21.23;51.88;95324.28;5028497;28;20021;-69
2022/07/28 00:13:55;;;;;;;1999.90;999.90;;;;;;;21.25;51.89;95332.84;5028277;28;20021;-69
2022/07/28 00:16:20;;;;;;;1999.90;999.90;;;;;;;21.09;52.14;95321.44;5028082;28;20040;-68
2022/07/28 00:18:45;;;;;;;1999.90;999.90;;;;;;;21.17;52.00;95320.34;5010443;28;20113;-69
2022/07/28 00:21:11;;;;;;;1999.90;999.90;;;;;;;21.19;52.35;95320.78;5028501;28;20068;-69
2022/07/28 00:23:36;;;;;;;1999.90;999.90;;;;;;;21.31;52.38;95341.44;5028958;28;20178;-68
2022/07/28 00:26:02;;;;;;;1999.90;999.90;;;;;;;21.28;52.43;95326.66;5028627;28;20044;-68
2022/07/28 00:28:27;;;;;;;1999.90;999.90;;;;;;;20.93;53.28;95307.28;5028572;28;20029;-69
2022/07/28 00:30:54;;;;;;;1999.90;999.90;;;;;;;21.05;53.13;95315.19;5028706;28;20105;-69
2022/07/28 00:33:19;;;;;;;1999.90;999.90;;;;;;;21.09;53.10;95313.31;5010767;28;20494;-68
2022/07/28 00:35:44;;;;;;;1999.90;999.90;;;;;;;21.16;53.30;95326.91;5028608;28;20079;-68
2022/07/28 00:38:10;;;;;;;1999.90;999.90;;;;;;;21.07;53.06;95312.88;5028370;28;20072;-68
2022/07/28 00:43:19;;;;;;;1999.90;999.90;;;;;;;21.04;54.03;95321.75;5028311;28;20092;-69
2022/07/28 00:45:44;;;;;;;1999.90;999.90;;;;;;;21.13;53.74;95316.81;5028375;28;20481;-69
2022/07/28 00:48:09;;;;;;;1999.90;999.90;;;;;;;21.03;53.75;95307.41;5028438;28;20044;-69
2022/07/28 00:50:37;;;;;;;1999.90;999.90;;;;;;;21.05;53.65;95312.47;5028406;28;20034;-68
2022/07/28 00:53:03;;;;;;;1999.90;999.90;;;;;;;21.05;53.80;95311.69;5028695;28;20108;-68
2022/07/28 00:55:28;;;;;;;1999.90;999.90;;;;;;;20.93;53.98;95291.06;5028263;28;20065;-68
2022/07/28 00:57:54;;;;;;;1999.90;999.90;;;;;;;20.91;54.00;95290.66;5010711;28;20029;-69
2022/07/28 01:00:19;;;;;;;1999.90;999.90;;;;;;;20.75;54.47;95283.50;5028272;28;20026;-68
2022/07/28 01:02:47;;;;;;;1999.90;999.90;;;;;;;20.47;55.18;95264.16;5028607;28;20056;-69
2022/07/28 01:05:14;;;;;;;1999.90;999.90;;;;;;;20.52;55.51;95280.06;5010738;28;20076;-69
2022/07/28 01:07:58;;;;;;;1999.90;999.90;;;;;;;20.76;55.19;95285.03;4996187;28;20017;-68
2022/07/28 01:10:39;;;;;;;1999.90;999.90;;;;;;;20.60;55.13;95275.56;5028239;28;20056;-69
2022/07/28 01:13:41;;;;;;;1999.90;999.90;;;;;;;20.67;55.29;95279.13;5010654;28;20053;-69
2022/07/28 01:16:07;;;;;;;1999.90;999.90;;;;;;;20.56;55.85;95272.00;4945663;28;20578;-68
2022/07/28 01:18:46;;;;;;;1999.90;999.90;;;;;;;20.68;55.74;95288.81;5028084;28;20112;-68
2022/07/28 01:21:15;;;;;;;1999.90;999.90;;;;;;;20.59;55.76;95258.56;5029324;28;20474;-68
2022/07/28 01:23:53;;;;;;;1999.90;999.90;;;;;;;20.65;56.06;95272.53;5032309;28;20037;-68
2022/07/28 01:26:24;;;;;;;1999.90;999.90;;;;;;;20.66;55.95;95269.47;5014573;28;20037;-68
2022/07/28 01:29:21;;;;;;;1999.90;999.90;;;;;;;20.70;55.91;95275.69;5014639;28;20030;-68
2022/07/28 01:32:05;;;;;;;1999.90;999.90;;;;;;;20.36;56.83;95255.88;5032287;28;20036;-68
2022/07/28 01:34:49;;;;;;;1999.90;999.90;;;;;;;20.64;56.32;95266.34;5014724;28;20120;-68
2022/07/28 01:37:19;;;;;;;1999.90;999.90;;;;;;;20.71;56.00;95266.44;5012852;28;20116;-70
2022/07/28 01:39:46;;;;;;;1999.90;999.90;;;;;;;20.42;56.56;95238.22;5031997;28;20033;-70
2022/07/28 01:42:12;;;;;;;1999.90;999.90;;;;;;;20.39;56.69;95238.16;5030990;28;20041;-70
2022/07/28 01:44:43;;;;;;;1999.90;999.90;;;;;;;20.41;57.08;95257.47;5031389;28;20026;-71
2022/07/28 01:47:10;;;;;;;1999.90;999.90;;;;;;;20.46;56.39;95239.06;5030965;28;20033;-70
2022/07/28 01:49:37;;;;;;;1999.90;999.90;;;;;;;20.47;57.11;95253.34;5031358;28;20159;-67
2022/07/28 01:52:06;;;;;;;1999.90;999.90;;;;;;;20.45;57.05;95272.59;5031752;28;20022;-70
2022/07/28 01:54:36;;;;;;;1999.90;999.90;;;;;;;20.38;57.21;95252.81;5013436;28;20367;-70
2022/07/28 01:57:03;;;;;;;1999.90;999.90;;;;;;;20.40;57.50;95254.00;5032028;28;20025;-70
2022/07/28 01:59:29;;;;;;;1999.90;999.90;;;;;;;20.14;58.03;95219.66;5031252;28;20398;-70
2022/07/28 02:01:57;;;;;;;1999.90;999.90;;;;;;;20.24;58.37;95242.56;5013398;28;20509;-69
2022/07/28 02:04:25;;;;;;;1999.90;999.90;;;;;;;20.28;57.77;95238.00;5013475;28;20075;-69
2022/07/28 02:06:53;;;;;;;1999.90;999.90;;;;;;;20.32;58.00;95243.44;5031362;28;20052;-69
2022/07/28 02:09:21;;;;;;;1999.90;999.90;;;;;;;20.48;57.97;95263.81;5031054;28;20393;-69
2022/07/28 02:11:50;;;;;;;1999.90;999.90;;;;;;;20.24;57.95;95232.56;5031168;28;20155;-70
2022/07/28 02:14:19;;;;;;;1999.90;999.90;;;;;;;20.49;58.10;95264.59;5012138;28;20474;-69
2022/07/28 02:16:50;;;;;;;1999.90;999.90;;;;;;;20.60;57.61;95259.34;5030213;28;20470;-69
2022/07/28 02:19:17;;;;;;;1999.90;999.90;;;;;;;20.37;58.08;95233.13;5013230;28;20030;-69
2022/07/28 02:21:43;;;;;;;1999.90;999.90;;;;;;;20.41;57.92;95235.88;5029972;28;20029;-69
2022/07/28 02:24:11;;;;;;;1999.90;999.90;;;;;;;20.35;58.54;95242.72;5030452;28;20113;-70
2022/07/28 02:26:41;;;;;;;1999.90;999.90;;;;;;;20.41;58.21;95233.16;5012764;28;20060;-70
2022/07/28 02:29:11;;;;;;;1999.90;999.90;;;;;;;20.37;58.18;95229.63;5030795;28;20067;-69
2022/07/28 02:31:43;;;;;;;1999.90;999.90;;;;;;;20.43;58.06;95255.22;4994358;28;20022;-70
2022/07/28 02:34:11;;;;;;;1999.90;999.90;;;;;;;20.39;58.64;95246.28;5007398;28;20095;-69
2022/07/28 02:36:40;;;;;;;1999.90;999.90;;;;;;;20.13;59.50;95247.81;5030471;28;20042;-70
2022/07/28 02:39:10;;;;;;;1999.90;999.90;;;;;;;20.18;59.30;95246.72;5012697;28;20156;-69
2022/07/28 02:41:40;;;;;;;1999.90;999.90;;;;;;;20.16;59.21;95244.38;5030408;28;20036;-69
2022/07/28 02:44:24;;;;;;;1999.90;999.90;;;;;;;20.09;59.67;95244.28;5012536;28;20022;-70
2022/07/28 02:46:52;;;;;;;1999.90;999.90;;;;;;;19.93;59.77;95217.41;5012115;28;20029;-69
2022/07/28 02:49:24;;;;;;;1999.90;999.90;;;;;;;20.06;59.35;95226.09;5030434;28;20029;-69
2022/07/28 02:51:51;;;;;;;;;;;;;;;20.21;59.19;95246.75;5013052;28;20044;-69
2022/07/28 02:54:19;;;;;;;1999.90;999.90;;;;;;;20.13;59.29;95239.72;5030667;28;19936;-70
2022/07/28 02:56:49;;;;;;;1999.90;999.90;;;;;;;19.90;59.63;95211.94;5012391;28;20044;-69
2022/07/28 02:59:15;;;;;;;1999.90;999.90;;;;;;;20.11;59.27;95233.09;4997615;28;20061;-69
2022/07/28 03:01:42;;;;;;;1999.90;999.90;;;;;;;20.06;59.60;95219.91;5022683;28;20398;-71
2022/07/28 03:04:09;;;;;;;1999.90;999.90;;;;;;;19.96;59.62;95224.00;5030537;28;20067;-70
2022/07/28 03:06:34;;;;;;;1999.90;999.90;;;;;;;19.93;59.46;95220.13;5012389;28;20033;-69
2022/07/28 03:09:00;;;;;;;1999.90;999.90;;;;;;;19.87;60.25;95229.66;5030314;28;20033;-70
2022/07/28 03:11:26;;;;;;;1999.90;999.90;;;;;;;19.84;59.89;95224.19;5012143;28;20167;-70
2022/07/28 03:13:51;;;;;;;1999.90;999.90;;;;;;;19.91;59.63;95229.69;5029425;28;20047;-69
2022/07/28 03:18:52;;;;;;;1999.90;999.90;;;;;;;20.03;59.72;95242.25;5029054;28;20060;-66
2022/07/28 03:21:17;;;;;;;1999.90;999.90;;;;;;;20.03;60.04;95256.53;5007732;28;20025;-67
2022/07/28 03:23:46;;;;;;;1999.90;999.90;;;;;;;19.97;60.26;95252.56;5030103;28;20120;-67
2022/07/28 03:26:22;;;;;;;1999.90;999.90;;;;;;;19.97;60.62;95255.28;5028807;28;20470;-67
2022/07/28 03:28:51;;;;;;;1999.90;999.90;;;;;;;19.95;60.30;95258.31;5021660;28;20053;-67
2022/07/28 03:31:18;;;;;;;1999.90;999.90;;;;;;;19.86;60.05;95257.00;5024142;28;20370;-67
2022/07/28 03:33:45;;;;;;;1999.90;999.90;;;;;;;19.94;60.25;95261.38;5015587;28;20112;-69
2022/07/28 03:36:14;;;;;;;1999.90;999.90;;;;;;;19.84;61.10;95260.06;5012541;28;20026;-66
2022/07/28 03:38:47;;;;;;;1999.90;999.90;;;;;;;19.86;60.63;95263.19;5023424;28;20088;-67
2022/07/28 03:41:15;;;;;;;1999.90;999.90;;;;;;;19.79;60.90;95265.75;5015997;28;20031;-67
2022/07/28 03:43:43;;;;;;;1999.90;999.90;;;;;;;19.81;60.95;95260.00;5027604;28;20040;-67
2022/07/28 03:46:08;;;;;;;1999.90;999.90;;;;;;;19.72;61.35;95255.63;5010045;28;20033;-67
2022/07/28 03:48:33;;;;;;;1999.90;999.90;;;;;;;19.62;61.49;95256.22;5030070;28;20100;-68
2022/07/28 03:50:59;;;;;;;1999.90;999.90;;;;;;;19.72;61.24;95250.22;5020058;28;20038;-67
2022/07/28 03:53:27;;;;;;;1999.90;999.90;;;;;;;19.84;61.08;95251.19;5009469;28;20449;-67
2022/07/28 03:55:53;;;;;;;1999.90;999.90;;;;;;;19.83;61.06;95252.34;5016453;28;20021;-68
2022/07/28 03:58:24;;;;;;;1999.90;999.90;;;;;;;19.77;61.29;95249.16;5011094;28;20133;-67
2022/07/28 04:00:50;;;;;;;1999.90;999.90;;;;;;;19.89;61.05;95254.38;5008667;28;20026;-67
2022/07/28 04:03:19;;;;;;;1999.90;999.90;;;;;;;19.79;61.11;95243.38;5029254;28;20039;-67
2022/07/28 04:05:45;;;;;;;1999.90;999.90;;;;;;;19.73;61.63;95251.78;5028268;28;20025;-68
2022/07/28 04:08:11;;;;;;;1999.90;999.90;;;;;;;19.91;61.41;95259.41;5012143;28;20017;-67
2022/07/28 04:10:36;;;;;;;1999.90;999.90;;;;;;;19.99;60.64;95247.59;5010138;28;20108;-67
2022/07/28 04:13:02;;;;;;;1999.90;999.90;;;;;;;19.99;61.02;95258.38;5028139;28;20044;-68
2022/07/28 04:15:29;;;;;;;1999.90;999.90;;;;;;;20.10;60.85;95250.44;5024446;28;20022;-67
2022/07/28 04:17:55;;;;;;;1999.90;999.90;;;;;;;20.16;60.41;95259.81;5009803;28;20121;-68
2022/07/28 04:20:22;;;;;;;1999.90;999.90;;;;;;;20.19;60.25;95259.09;4993796;28;20032;-67
2022/07/28 04:22:49;;;;;;;1999.90;999.90;;;;;;;20.19;60.31;95251.00;5029129;28;20040;-67
2022/07/28 04:25:16;;;;;;;1999.90;999.90;;;;;;;20.24;59.84;95253.38;5027472;28;20021;-67
2022/07/28 04:27:42;;;;;;;1999.90;999.90;;;;;;;20.23;59.88;95254.53;5010203;28;20122;-66
2022/07/28 04:30:15;;;;;;;1999.90;999.90;;;;;;;20.31;60.17;95263.50;4974008;28;20037;-66
2022/07/28 04:32:42;;;;;;;1999.90;999.90;;;;;;;20.39;59.96;95265.19;5015548;28;20536;-67
2022/07/28 04:35:08;;;;;;;1999.90;999.90;;;;;;;20.43;59.99;95263.31;5001489;28;20113;-67
2022/07/28 04:37:34;;;;;;;1999.90;999.90;;;;;;;20.39;59.50;95260.56;5029589;28;20512;-66
2022/07/28 04:39:59;;;;;;;1999.90;999.90;;;;;;;20.22;60.14;95256.44;5010039;28;20033;-66
2022/07/28 04:42:24;;;;;;;1999.90;999.90;;;;;;;20.12;60.73;95248.19;5008828;28;20069;-66
2022/07/28 04:44:50;;;;;;;1999.90;999.90;;;;;;;20.34;59.81;95260.09;4988273;28;20038;-66
2022/07/28 04:47:15;;;;;;;1999.90;999.90;;;;;;;20.14;60.64;95260.16;5011774;28;20542;-66
2022/07/28 04:49:41;;;;;;;1999.90;999.90;;;;;;;20.05;60.95;95256.94;5017712;28;20029;-66
2022/07/28 04:52:09;;;;;;;1999.90;999.90;;;;;;;20.50;59.91;95266.16;5011383;28;20125;-66
2022/07/28 04:54:37;;;;;;;1999.90;999.90;;;;;;;20.77;59.04;95262.25;5021366;28;20381;-66
2022/07/28 04:57:03;;;;;;;1999.90;999.90;;;;;;;20.77;58.87;95261.50;5014032;28;20050;-66
2022/07/28 04:59:28;;;;;;;1999.90;999.90;;;;;;;20.85;58.64;95256.97;4996095;28;20580;-66
2022/07/28 05:01:56;;;;;;;1999.90;999.90;;;;;;;20.90;58.32;95267.47;5023454;28;20037;-66
2022/07/28 05:04:21;;;;;;;1999.90;999.90;;;;;;;21.13;57.97;95257.31;5013056;28;20018;-66
2022/07/28 05:06:47;;;;;;;1999.90;999.90;;;;;;;21.26;57.17;95257.84;5025597;28;20374;-66
2022/07/28 05:09:12;;;;;;;1999.90;999.90;;;;;;;21.46;56.89;95253.84;5015352;28;20026;-66
2022/07/28 05:11:37;;;;;;;1999.90;999.90;;;;;;;21.74;55.95;95261.47;5020652;28;20052;-66
2022/07/28 05:14:03;;;;;;;1999.90;999.90;;;;;;;21.83;55.21;95272.00;5028552;28;20025;-66
2022/07/28 05:16:28;;;;;;;1999.90;999.90;;;;;;;21.62;55.82;95267.16;5030445;28;20108;-67
2022/07/28 05:18:53;;;;;;;1999.90;999.90;;;;;;;21.49;56.16;95250.41;5014595;28;20097;-66
2022/07/28 05:21:19;;;;;;;1999.90;999.90;;;;;;;21.93;55.39;95273.25;4995142;28;20087;-67
2022/07/28 05:23:44;;;;;;;1999.90;999.90;;;;;;;22.03;55.33;95262.50;5012566;28;20500;-66
2022/07/28 05:26:09;;;;;;;1999.90;999.90;;;;;;;21.94;54.91;95258.56;5020236;28;20467;-66
2022/07/28 05:28:35;;;;;;;1999.90;999.90;;;;;;;22.20;54.33;95266.53;5031695;28;20033;-66
2022/07/28 05:31:00;;;;;;;1999.90;999.90;;;;;;;22.15;54.69;95269.59;5009887;28;20079;-66
2022/07/28 05:33:26;;;;;;;1999.90;999.90;;;;;;;22.39;54.06;95272.88;5000976;28;20034;-66
2022/07/28 05:35:58;;;;;;;1999.90;999.90;;;;;;;22.61;53.72;95273.81;5000007;28;20029;-66
2022/07/28 05:38:24;;;;;;;1999.90;999.90;;;;;;;22.70;53.08;95272.31;5012622;28;20041;-67
2022/07/28 05:40:50;;;;;;;1999.90;999.90;;;;;;;22.70;53.01;95275.03;5013275;28;20032;-67
2022/07/28 05:43:16;;;;;;;1999.90;999.90;;;;;;;22.81;52.63;95277.81;5013081;28;20390;-66
2022/07/28 05:45:41;;;;;;;1999.90;999.90;;;;;;;22.62;52.77;95264.50;5030595;28;20030;-66
2022/07/28 05:48:07;;;;;;;1999.90;999.90;;;;;;;22.88;53.10;95271.63;5013350;28;20161;-66
2022/07/28 05:50:32;;;;;;;1999.90;999.90;;;;;;;22.76;52.59;95276.22;5011811;28;20050;-66
2022/07/28 05:52:58;;;;;;;1999.90;999.90;;;;;;;22.86;52.52;95282.09;5012099;28;20105;-67
2022/07/28 05:55:24;;;;;;;1999.90;999.90;;;;;;;22.77;53.02;95266.16;4994142;28;20033;-66
2022/07/28 05:57:49;;;;;;;1999.90;999.90;;;;;;;22.93;52.54;95269.38;5012032;28;20025;-66
2022/07/28 06:00:22;;;;;;;1999.90;999.90;;;;;;;23.01;52.51;95276.38;5011779;28;20110;-66
2022/07/28 06:02:48;;;;;;;1999.90;999.90;;;;;;;22.76;53.49;95270.78;5025433;28;20101;-66
2022/07/28 06:05:16;;;;;;;1999.90;999.90;;;;;;;22.79;53.08;95274.69;5012420;28;20029;-67
2022/07/28 06:07:44;;;;;;;1999.90;999.90;;;;;;;23.04;53.22;95281.06;5030124;28;20164;-65
2022/07/28 06:10:12;;;;;;;1999.90;999.90;;;;;;;23.24;52.17;95276.13;5014012;28;20036;-66
2022/07/28 06:12:41;;;;;;;1999.90;999.90;;;;;;;23.19;52.39;95276.47;5011935;28;20061;-66
2022/07/28 06:15:11;;;;;;;1999.90;999.90;;;;;;;22.90;53.38;95281.00;5006235;28;20022;-68
2022/07/28 06:17:36;;;;;;;1999.90;999.90;;;;;;;23.00;53.43;95279.50;5025610;28;20034;-66
2022/07/28 06:20:02;;;;;;;1999.90;999.90;;;;;;;23.32;52.17;95269.53;5014119;28;20035;-65
2022/07/28 06:22:28;;;;;;;1999.90;999.90;;;;;;;23.49;51.98;95272.69;5013490;28;20026;-68
2022/07/28 06:24:54;;;;;;;1999.90;999.90;;;;;;;23.51;51.73;95267.66;5011424;28;20466;-66
2022/07/28 06:27:19;;;;;;;1999.90;999.90;;;;;;;23.69;50.91;95268.50;5012402;28;20029;-66
2022/07/28 06:29:45;;;;;;;1999.90;999.90;;;;;;;23.75;50.97;95269.69;5011342;28;20378;-66
2022/07/28 06:32:10;;;;;;;1999.90;999.90;;;;;;;23.86;50.27;95270.50;4992781;28;20470;-66
2022/07/28 06:34:35;;;;;;;1999.90;999.90;;;;;;;23.91;50.35;95261.19;5010819;28;20029;-67
2022/07/28 06:37:01;;;;;;;1999.90;999.90;;;;;;;23.97;49.83;95261.56;4998854;28;20030;-66
2022/07/28 06:39:26;;;;;;;1999.90;999.90;;;;;;;23.96;49.89;95262.75;4994077;28;20095;-66
2022/07/28 06:41:52;;;;;;;1999.90;999.90;;;;;;;23.80;50.57;95271.22;4987677;28;20029;-66
2022/07/28 06:44:17;;;;;;;1999.90;999.90;;;;;;;23.56;51.26;95267.28;4993368;28;20037;-66
2022/07/28 06:46:42;;;;;;;1999.90;999.90;;;;;;;23.42;51.46;95272.69;4991997;28;20026;-66
2022/07/28 06:49:07;;;;;;;1999.90;999.90;;;;;;;23.78;51.35;95277.06;5008565;28;20088;-66
2022/07/28 06:51:33;;;;;;;1999.90;999.90;;;;;;;23.96;50.26;95274.38;5014737;28;20061;-66
2022/07/28 06:53:58;;;;;;;1999.90;999.90;;;;;;;24.11;50.41;95270.50;5014433;28;20121;-66
2022/07/28 06:56:23;;;;;;;1999.90;999.90;;;;;;;24.20;50.19;95278.25;5012157;28;20037;-66
2022/07/28 06:58:49;;;;;;;1999.90;999.90;;;;;;;24.05;50.33;95266.59;5019523;28;20033;-67
2022/07/28 07:01:15;;;;;;;1999.90;999.90;;;;;;;24.20;50.30;95272.81;5010199;28;20021;-66
2022/07/28 07:03:41;;;;;;;1999.90;999.90;;;;;;;24.24;49.61;95259.25;5004652;28;20109;-66
2022/07/28 07:06:07;;;;;;;1999.90;999.90;;;;;;;24.35;49.90;95268.97;5022333;28;20029;-66
2022/07/28 07:08:33;;;;;;;1999.90;999.90;;;;;;;24.22;49.62;95246.06;5020491;28;20458;-66
2022/07/28 07:10:58;;;;;;;1999.90;999.90;;;;;;;24.31;49.55;95273.63;5010494;28;20057;-66
2022/07/28 07:13:24;;;;;;;1999.90;999.90;;;;;;;24.09;50.27;95270.09;4998383;28;20033;-65
2022/07/28 07:15:49;;;;;;;1999.90;999.90;;;;;;;23.89;50.44;95270.88;5027621;28;20031;-66
2022/07/28 07:18:14;;;;;;;1999.90;999.90;;;;;;;24.01;50.10;95246.06;5025408;28;20034;-66
2022/07/28 07:20:40;;;;;;;1999.90;999.90;;;;;;;24.19;50.36;95254.97;5009271;28;20034;-66
2022/07/28 07:23:05;;;;;;;1999.90;999.90;;;;;;;24.20;50.05;95244.88;5024846;28;20022;-66
2022/07/28 07:25:30;;;;;;;1999.90;999.90;;;;;;;24.09;50.30;95253.81;5027328;28;20160;-67
2022/07/28 07:27:56;;;;;;;1999.90;999.90;;;;;;;24.36;49.57;95248.81;4992510;28;20083;-67
2022/07/28 07:30:21;;;;;;;1999.90;999.90;;;;;;;24.43;50.02;95247.22;5009889;28;20109;-67
2022/07/28 07:32:46;;;;;;;1999.90;999.90;;;;;;;24.26;50.06;95251.47;5019012;28;20032;-68
2022/07/28 07:35:12;;;;;;;1999.90;999.90;;;;;;;23.98;50.67;95250.31;5008798;28;20034;-67
2022/07/28 07:37:37;;;;;;;1999.90;999.90;;;;;;;24.12;50.92;95244.13;5010797;28;20034;-67
2022/07/28 07:40:04;;;;;;;1999.90;999.90;;;;;;;24.24;50.13;95241.00;5009867;28;20064;-67
2022/07/28 07:42:29;;;;;;;1999.90;999.90;;;;;;;24.41;49.78;95238.66;5010093;28;20038;-67
2022/07/28 07:44:55;;;;;;;1999.90;999.90;;;;;;;23.72;51.27;95229.72;5013531;28;20072;-70
2022/07/28 07:47:20;;;;;;;1999.90;999.90;;;;;;;23.79;51.20;95237.09;5023550;28;20025;-69
2022/07/28 07:49:46;;;;;;;1999.90;999.90;;;;;;;23.91;50.67;95233.25;5013318;28;20069;-69
2022/07/28 07:52:11;;;;;;;1999.90;999.90;;;;;;;24.25;49.98;95247.19;5010885;28;20037;-67
2022/07/28 07:54:37;;;;;;;1999.90;999.90;;;;;;;24.25;49.79;95239.81;5012071;28;20489;-66
2022/07/28 07:57:02;;;;;;;1999.90;999.90;;;;;;;23.49;51.05;95229.25;5004943;28;20413;-66
2022/07/28 07:59:29;;;;;;;1999.90;999.90;;;;;;;24.08;50.90;95246.06;5029052;28;20025;-68
2022/07/28 08:01:54;;;;;;;1999.90;999.90;;;;;;;24.01;50.50;95224.31;5022265;28;20087;-67
2022/07/28 08:04:20;;;;;;;1999.90;999.90;;;;;;;24.36;50.21;95246.09;4988503;28;20026;-67
2022/07/28 08:06:50;;;;;;;1999.90;999.90;;;;;;;24.42;49.85;95242.97;4999333;28;20028;-70
2022/07/28 08:09:16;;;;;;;1999.90;999.90;;;;;;;24.55;49.08;95233.22;4998370;28;20080;-70
2022/07/28 08:11:42;;;;;;;1999.90;999.90;;;;;;;24.58;49.06;95235.16;5012555;28;20096;-67
2022/07/28 08:14:07;;;;;;;1999.90;999.90;;;;;;;23.82;50.77;95239.03;5028527;28;20480;-67
2022/07/28 08:16:32;;;;;;;1999.90;999.90;;;;;;;23.94;49.88;95233.22;5022906;28;20030;-67
2022/07/28 08:18:58;;;;;;;1999.90;999.90;;;;;;;24.11;49.64;95245.28;4991908;28;20173;-68
2022/07/28 08:21:24;;;;;;;1999.90;999.90;;;;;;;24.34;49.86;95234.00;4990904;28;20390;-67
2022/07/28 08:23:50;;;;;;;1999.90;999.90;;;;;;;24.31;49.62;95232.84;5009353;28;20119;-67
2022/07/28 08:26:15;;;;;;;1999.90;999.90;;;;;;;24.33;49.61;95233.22;5009192;28;20057;-67
2022/07/28 08:28:41;;;;;;;1999.90;999.90;;;;;;;24.70;48.83;95228.53;5028163;28;20018;-67
2022/07/28 08:31:06;;;;;;;1999.90;999.90;;;;;;;24.88;49.16;95238.19;5027796;28;20537;-67
2022/07/28 08:33:32;;;;;;;1999.90;999.90;;;;;;;25.17;48.13;95229.16;5027649;28;20029;-67
2022/07/28 08:35:57;;;;;;;1999.90;999.90;;;;;;;25.00;48.17;95228.06;4996917;28;20034;-67
2022/07/28 08:38:22;;;;;;;1999.90;999.90;;;;;;;24.78;49.54;95233.56;5029461;28;20028;-67
2022/07/28 08:40:50;;;;;;;1999.90;999.90;;;;;;;25.01;49.06;95240.47;5028190;28;20029;-68
2022/07/28 08:43:21;;;;;;;1999.90;999.90;;;;;;;24.52;49.45;95236.75;5029433;28;20025;-69
2022/07/28 08:45:47;;;;;;;1999.90;999.90;;;;;;;24.43;49.06;95237.13;5009027;28;20032;-69
2022/07/28 08:48:15;;;;;;;1999.90;999.90;;;;;;;24.93;48.66;95228.06;5009726;28;20072;-70
2022/07/28 08:50:42;;;;;;;1999.90;999.90;;;;;;;24.98;49.02;95236.63;5012534;28;20474;-69
2022/07/28 08:53:08;;;;;;;1999.90;999.90;;;;;;;25.12;48.99;95239.28;5012750;28;20512;-70
2022/07/28 08:55:35;;;;;;;1999.90;999.90;;;;;;;24.63;49.67;95230.09;5001941;28;20034;-69
2022/07/28 08:58:01;;;;;;;1999.90;999.90;;;;;;;25.15;48.96;95229.56;5001995;28;20128;-72
2022/07/28 09:00:27;;;;;;;1999.90;999.90;;;;;;;25.39;47.64;95239.56;5016770;28;20041;-70
2022/07/28 09:02:54;;;;;;;1999.90;999.90;;;;;;;24.95;48.35;95212.13;5018861;28;20033;-71
2022/07/28 09:05:20;;;;;;;1999.90;999.90;;;;;;;25.15;48.03;95224.91;5013177;28;20037;-70
2022/07/28 09:07:51;;;;;;;1999.90;999.90;;;;;;;25.41;47.65;95231.78;5011766;28;20029;-69
2022/07/28 09:10:17;;;;;;;1999.90;999.90;;;;;;;25.13;47.78;95226.44;5025050;28;20030;-70
2022/07/28 09:12:43;;;;;;;1999.90;999.90;;;;;;;25.20;47.79;95226.44;5026104;28;20292;-70
2022/07/28 09:15:10;;;;;;;1999.90;999.90;;;;;;;25.77;47.28;95237.03;5007537;28;20041;-70
2022/07/28 09:17:36;;;;;;;1999.90;999.90;;;;;;;25.53;47.07;95237.94;5028947;28;20044;-70
2022/07/28 09:20:03;;;;;;;1999.90;999.90;;;;;;;25.66;46.23;95239.03;5011511;28;20026;-70
2022/07/28 09:22:32;;;;;;;1999.90;999.90;;;;;;;25.12;47.21;95227.63;5010523;28;20033;-70
2022/07/28 09:24:57;;;;;;;1999.90;999.90;;;;;;;25.65;46.44;95229.31;5015071;28;20034;-70
2022/07/28 09:27:22;;;;;;;1999.90;999.90;;;;;;;26.16;45.81;95234.03;5011546;28;20093;-70
2022/07/28 09:29:57;;;;;;;1999.90;999.90;;;;;;;25.75;46.10;95231.22;5013414;28;20053;-71
2022/07/28 09:32:24;;;;;;;1999.90;999.90;;;;;;;26.43;45.21;95231.47;5008426;28;20029;-70
2022/07/28 09:34:49;;;;;;;1999.90;999.90;;;;;;;25.83;45.55;95227.25;5016043;28;20022;-70
2022/07/28 09:37:16;;;;;;;1999.90;999.90;;;;;;;25.72;46.20;95217.59;5008622;28;20096;-70
2022/07/28 09:39:43;;;;;;;1999.90;999.90;;;;;;;25.78;45.47;95229.63;5021617;28;20030;-70
2022/07/28 09:42:08;;;;;;;1999.90;999.90;;;;;;;25.86;45.74;95223.75;5029577;28;20030;-70
2022/07/28 09:44:34;;;;;;;1999.90;999.90;;;;;;;25.98;45.68;95221.72;5024964;28;20101;-70
2022/07/28 09:46:59;;;;;;;1999.90;999.90;;;;;;;26.17;46.08;95216.50;5013213;28;20034;-70
2022/07/28 09:49:41;;;;;;;1999.90;999.90;;;;;;;25.99;46.58;95228.72;5027440;28;20030;-71
2022/07/28 09:52:07;;;;;;;1999.90;999.90;;;;;;;26.13;44.72;95226.66;5011846;28;20053;-69
2022/07/28 09:54:32;;;;;;;1999.90;999.90;;;;;;;26.34;43.72;95203.88;5020399;28;20052;-70
2022/07/28 09:56:58;;;;;;;1999.90;999.90;;;;;;;26.39;44.04;95217.06;5026808;28;20022;-70
2022/07/28 09:59:23;;;;;;;1999.90;999.90;;;;;;;26.30;43.69;95216.00;5012155;28;20075;-70
2022/07/28 10:01:57;;;;;;;1999.90;999.90;;;;;;;26.37;44.56;95216.72;5025158;28;20030;-71
2022/07/28 10:04:34;;;;;;;1999.90;999.90;;;;;;;25.71;46.53;95216.81;5023704;28;20029;-71
2022/07/28 10:07:02;;;;;;;1999.90;999.90;;;;;;;26.36;44.63;95208.91;5021877;28;20036;-69
2022/07/28 10:09:27;;;;;;;1999.90;999.90;;;;;;;26.74;43.74;95219.88;5023736;28;20034;-73
2022/07/28 10:12:09;;;;;;;1999.90;999.90;;;;;;;27.17;42.38;95201.06;4995404;28;20733;-70
2022/07/28 10:14:34;;;;;;;1999.90;999.90;;;;;;;27.28;42.60;95204.47;5012156;28;20030;-67
2022/07/28 10:17:00;;;;;;;1999.90;999.90;;;;;;;26.92;43.45;95212.25;5008501;28;20120;-69
2022/07/28 10:19:26;;;;;;;1999.90;999.90;;;;;;;26.56;42.98;95200.97;5029240;28;20124;-70
2022/07/28 10:21:53;;;;;;;1999.90;999.90;;;;;;;27.10;41.89;95196.47;5005273;28;20028;-69
2022/07/28 10:24:23;;;;;;;1999.90;999.90;;;;;;;26.92;43.01;95199.41;4999043;28;20520;-72
2022/07/28 10:26:51;;;;;;;1999.90;999.90;;;;;;;26.90;42.42;95204.47;5025420;28;20087;-70
2022/07/28 10:29:20;;;;;;;1999.90;999.90;;;;;;;26.60;43.73;95193.53;4994122;28;20109;-68
2022/07/28 10:31:53;;;;;;;1999.90;999.90;;;;;;;26.66;43.84;95198.13;5006360;28;20071;-68
2022/07/28 10:34:26;;;;;;;1999.90;999.90;;;;;;;26.41;43.76;95184.72;5012342;28;20112;-67
2022/07/28 10:36:54;;;;;;;1999.90;999.90;;;;;;;26.66;44.23;95198.13;5010053;28;20231;-68
2022/07/28 10:39:24;;;;;;;1999.90;999.90;;;;;;;26.60;43.13;95190.78;4994107;28;20509;-69
2022/07/28 10:41:50;;;;;;;1999.90;999.90;;;;;;;26.83;42.39;95193.66;5012280;28;20029;-67
2022/07/28 10:44:18;;;;;;;1999.90;999.90;;;;;;;26.31;44.55;95203.91;4990669;28;20359;-68
2022/07/28 10:46:44;;;;;;;1999.90;999.90;;;;;;;27.03;42.52;95215.66;5005597;28;20080;-68
2022/07/28 10:49:11;;;;;;;1999.90;999.90;;;;;;;27.24;41.19;95203.72;5011869;28;20026;-68
2022/07/28 10:51:40;;;;;;;1999.90;999.90;;;;;;;27.70;40.72;95197.66;4996333;28;20030;-67
2022/07/28 10:54:28;;;;;;;1999.90;999.90;;;;;;;27.40;42.54;95201.16;5017821;28;20061;-67
2022/07/28 10:56:56;;;;;;;1999.90;999.90;;;;;;;27.60;41.18;95189.56;4991750;28;20019;-67
2022/07/28 10:59:50;;;;;;;1999.90;999.90;;;;;;;27.84;41.13;95204.06;5003244;28;20430;-71
2022/07/28 11:02:51;;;;;;;1999.90;999.90;;;;;;;27.80;40.76;95193.19;4987906;28;20120;-67